createdAt,value
2023-11-30T00:02:09.931Z,4.97
2023-11-30T00:04:31.807Z,4.93
2023-11-30T00:06:53.692Z,4.88
2023-11-30T00:09:15.607Z,4.87
2023-11-30T00:11:37.513Z,4.85
2023-11-30T00:13:59.399Z,4.84
2023-11-30T00:16:21.290Z,4.84
2023-11-30T00:18:43.252Z,4.85
2023-11-30T00:21:06.154Z,4.77
2023-11-30T00:23:28.256Z,4.76
2023-11-30T00:25:50.118Z,4.75
2023-11-30T00:28:11.961Z,4.75
2023-11-30T00:30:34.027Z,4.75
2023-11-30T00:32:56.398Z,4.78
2023-11-30T00:35:18.333Z,4.78
2023-11-30T00:37:40.197Z,4.79
2023-11-30T00:40:02.132Z,4.83
2023-11-30T00:42:24.941Z,4.86
2023-11-30T00:44:46.839Z,4.87
2023-11-30T00:47:09.035Z,4.89
2023-11-30T00:49:30.902Z,4.92
2023-11-30T00:51:52.843Z,4.91
2023-11-30T00:54:14.782Z,4.93
2023-11-30T00:56:36.705Z,4.92
2023-11-30T00:58:58.657Z,4.91
2023-11-30T01:01:21.472Z,4.84
2023-11-30T01:03:43.662Z,4.83
2023-11-30T01:06:05.970Z,4.78
2023-11-30T01:08:27.959Z,4.75
2023-11-30T01:10:49.860Z,4.68
2023-11-30T01:13:11.800Z,4.69
2023-11-30T01:15:33.668Z,4.71
2023-11-30T01:17:55.619Z,4.70
2023-11-30T01:20:18.362Z,4.71
2023-11-30T01:22:40.558Z,4.72
2023-11-30T01:25:02.447Z,4.70
2023-11-30T01:27:24.353Z,4.71
2023-11-30T01:29:46.567Z,4.75
2023-11-30T01:32:08.581Z,4.77
2023-11-30T01:34:30.533Z,4.79
2023-11-30T01:36:52.565Z,4.82
2023-11-30T01:39:16.659Z,4.84
2023-11-30T01:41:38.610Z,4.88
2023-11-30T01:44:00.508Z,4.91
2023-11-30T01:46:22.785Z,4.92
2023-11-30T01:48:45.528Z,4.93
2023-11-30T01:51:09.900Z,4.94
2023-11-30T01:53:32.065Z,4.91
2023-11-30T01:55:54.447Z,4.90
2023-11-30T01:58:16.315Z,4.89
2023-11-30T02:00:38.767Z,4.90
2023-11-30T02:03:02.422Z,4.94
2023-11-30T02:05:24.322Z,4.94
2023-11-30T02:07:46.217Z,4.97
2023-11-30T02:10:08.599Z,5.02
2023-11-30T02:12:30.658Z,4.97
2023-11-30T02:14:52.602Z,4.89
2023-11-30T02:17:14.805Z,4.81
2023-11-30T02:19:36.737Z,4.76
2023-11-30T02:21:58.679Z,4.75
2023-11-30T02:24:20.674Z,4.80
2023-11-30T02:26:42.729Z,4.81
2023-11-30T02:29:04.715Z,4.84
2023-11-30T02:31:26.679Z,4.83
2023-11-30T02:33:48.633Z,4.83
2023-11-30T02:36:11.035Z,4.86
2023-11-30T02:38:32.943Z,4.89
2023-11-30T02:40:54.940Z,4.90
2023-11-30T02:43:16.873Z,4.90
2023-11-30T02:45:38.776Z,4.93
2023-11-30T02:48:00.827Z,4.98
2023-11-30T02:50:22.815Z,5.00
2023-11-30T02:52:44.721Z,4.99
2023-11-30T02:55:07.374Z,4.98
2023-11-30T02:57:29.450Z,4.96
2023-11-30T02:59:51.357Z,4.98
2023-11-30T03:02:15.354Z,4.99
2023-11-30T03:04:37.433Z,5.01
2023-11-30T03:06:59.300Z,5.02
2023-11-30T03:09:21.360Z,4.87
2023-11-30T03:11:43.498Z,4.88
2023-11-30T03:14:05.426Z,4.90
2023-11-30T03:16:28.897Z,4.92
2023-11-30T03:18:59.214Z,4.91
2023-11-30T03:21:28.644Z,4.86
2023-11-30T03:23:52.719Z,4.82
2023-11-30T03:26:18.233Z,4.78
2023-11-30T03:28:40.106Z,4.75
2023-11-30T03:31:04.882Z,4.70
2023-11-30T03:33:26.772Z,4.68
2023-11-30T03:35:51.743Z,4.63
2023-11-30T03:38:13.655Z,4.59
2023-11-30T03:40:35.531Z,4.54
2023-11-30T03:42:57.453Z,4.44
2023-11-30T03:45:19.338Z,4.40
2023-11-30T03:47:41.264Z,4.31
2023-11-30T03:50:03.416Z,4.34
2023-11-30T03:52:25.279Z,4.30
2023-11-30T03:54:47.285Z,4.30
2023-11-30T03:57:09.218Z,4.23
2023-11-30T03:59:32.406Z,4.25
2023-11-30T04:01:55.925Z,4.17
2023-11-30T04:04:17.880Z,4.15
2023-11-30T04:06:39.899Z,4.14
2023-11-30T04:09:01.961Z,4.15
2023-11-30T04:11:23.840Z,4.11
2023-11-30T04:13:46.906Z,4.08
2023-11-30T04:16:09.408Z,4.03
2023-11-30T04:18:31.379Z,4.03
2023-11-30T04:20:53.400Z,4.05
2023-11-30T04:23:15.419Z,4.07
2023-11-30T04:25:37.329Z,3.97
2023-11-30T04:27:59.260Z,4.00
2023-11-30T04:30:21.250Z,4.01
2023-11-30T04:32:43.329Z,3.98
2023-11-30T04:35:06.541Z,3.97
2023-11-30T04:37:28.407Z,3.97
2023-11-30T04:39:50.262Z,4.00
2023-11-30T04:42:13.728Z,3.97
2023-11-30T04:44:40.615Z,3.96
2023-11-30T04:47:02.517Z,3.93
2023-11-30T04:49:24.379Z,3.93
2023-11-30T04:51:46.471Z,3.90
2023-11-30T04:54:10.588Z,3.96
2023-11-30T04:56:32.463Z,3.97
2023-11-30T04:58:54.648Z,4.01
2023-11-30T05:01:16.613Z,4.05
2023-11-30T05:03:39.496Z,4.05
2023-11-30T05:06:04.580Z,4.07
2023-11-30T05:08:28.790Z,4.11
2023-11-30T05:10:50.678Z,4.13
2023-11-30T05:13:12.632Z,4.07
2023-11-30T05:15:39.155Z,4.11
2023-11-30T05:18:01.153Z,4.14
2023-11-30T05:20:23.175Z,4.13
2023-11-30T05:22:44.993Z,4.09
2023-11-30T05:25:08.881Z,4.09
2023-11-30T05:27:30.764Z,4.07
2023-11-30T05:29:52.716Z,4.04
2023-11-30T05:32:14.658Z,3.98
2023-11-30T05:34:39.279Z,3.97
2023-11-30T05:37:01.130Z,3.94
2023-11-30T05:39:23.054Z,3.93
2023-11-30T05:41:44.975Z,3.90
2023-11-30T05:44:07.152Z,3.87
2023-11-30T05:46:29.066Z,3.89
2023-11-30T05:48:50.973Z,3.86
2023-11-30T05:51:14.721Z,3.79
2023-11-30T05:53:37.080Z,3.77
2023-11-30T05:55:59.727Z,3.71
2023-11-30T05:58:21.585Z,3.64
2023-11-30T06:00:44.182Z,3.58
2023-11-30T06:03:08.870Z,3.53
2023-11-30T06:05:31.001Z,3.52
2023-11-30T06:07:52.892Z,3.42
2023-11-30T06:10:16.111Z,3.35
2023-11-30T06:12:39.874Z,3.34
2023-11-30T06:15:01.805Z,3.30
2023-11-30T06:17:23.756Z,3.21
2023-11-30T06:19:46.326Z,3.13
2023-11-30T06:22:08.184Z,3.15
2023-11-30T06:24:31.085Z,3.17
2023-11-30T06:26:53.221Z,3.17
2023-11-30T06:29:16.976Z,3.18
2023-11-30T06:31:38.932Z,3.22
2023-11-30T06:34:00.794Z,3.19
2023-11-30T06:36:22.681Z,3.20
2023-11-30T06:38:45.008Z,3.21
2023-11-30T06:41:13.893Z,3.19
2023-11-30T06:43:35.898Z,3.22
2023-11-30T06:45:58.014Z,3.24
2023-11-30T06:48:20.204Z,3.26
2023-11-30T06:50:42.206Z,3.30
2023-11-30T06:53:04.101Z,3.31
2023-11-30T06:55:25.958Z,3.35
2023-11-30T06:57:48.120Z,3.39
2023-11-30T07:00:11.849Z,3.39
2023-11-30T07:02:33.893Z,3.40
2023-11-30T07:04:55.908Z,3.40
2023-11-30T07:07:27.882Z,3.32
2023-11-30T07:09:55.845Z,3.32
2023-11-30T07:12:17.798Z,3.33
2023-11-30T07:14:50.631Z,3.33
2023-11-30T07:17:13.627Z,3.37
2023-11-30T07:19:39.390Z,3.44
2023-11-30T07:22:01.309Z,3.51
2023-11-30T07:24:23.219Z,3.56
2023-11-30T07:26:49.517Z,3.61
2023-11-30T07:29:11.440Z,3.69
2023-11-30T07:31:33.494Z,3.76
2023-11-30T07:33:55.532Z,3.80
2023-11-30T07:36:17.541Z,3.81
2023-11-30T07:38:39.419Z,3.82
2023-11-30T07:41:02.026Z,3.87
2023-11-30T07:43:23.878Z,3.95
2023-11-30T07:45:45.779Z,4.00
2023-11-30T07:48:07.754Z,3.97
2023-11-30T07:50:29.983Z,3.94
2023-11-30T07:52:53.436Z,3.83
2023-11-30T07:55:15.497Z,3.73
2023-11-30T07:57:37.519Z,3.73
2023-11-30T07:59:59.422Z,3.70
2023-11-30T08:02:21.407Z,3.72
2023-11-30T08:04:43.480Z,3.76
2023-11-30T08:07:05.418Z,3.86
2023-11-30T08:09:28.395Z,3.95
2023-11-30T08:11:51.056Z,4.07
2023-11-30T08:14:13.238Z,4.29
2023-11-30T08:16:35.586Z,4.53
2023-11-30T08:18:58.079Z,4.70
2023-11-30T08:21:22.677Z,4.75
2023-11-30T08:23:45.008Z,4.68
2023-11-30T08:26:07.242Z,4.73
2023-11-30T08:28:29.114Z,4.85
2023-11-30T08:30:52.245Z,4.85
2023-11-30T08:33:14.214Z,5.39
2023-11-30T08:35:36.152Z,6.75
2023-11-30T08:37:58.055Z,7.17
2023-11-30T08:40:22.637Z,6.80
2023-11-30T08:42:44.597Z,6.44
2023-11-30T08:45:07.414Z,6.17
2023-11-30T08:47:29.356Z,6.03
2023-11-30T08:49:51.243Z,6.01
2023-11-30T08:52:13.076Z,6.08
2023-11-30T08:54:35.040Z,6.35
2023-11-30T08:56:57.848Z,6.36
2023-11-30T08:59:20.442Z,6.28
2023-11-30T09:01:45.384Z,6.16
2023-11-30T09:04:09.760Z,6.19
2023-11-30T09:06:34.322Z,6.23
2023-11-30T09:08:56.571Z,6.25
2023-11-30T09:11:18.481Z,6.15
2023-11-30T09:13:40.321Z,6.11
2023-11-30T09:16:02.591Z,6.09
2023-11-30T09:18:24.439Z,6.06
2023-11-30T09:20:46.291Z,6.06
2023-11-30T09:23:08.173Z,6.05
2023-11-30T09:25:30.304Z,6.13
2023-11-30T09:27:52.186Z,6.22
2023-11-30T09:30:15.457Z,6.17
2023-11-30T09:32:38.405Z,6.25
2023-11-30T09:35:00.319Z,6.30
2023-11-30T09:37:22.778Z,6.32
2023-11-30T09:39:45.696Z,6.30
2023-11-30T09:42:07.955Z,6.25
2023-11-30T09:44:29.890Z,6.27
2023-11-30T09:46:52.032Z,6.33
2023-11-30T09:49:13.984Z,6.30
2023-11-30T09:51:36.548Z,6.40
2023-11-30T09:53:58.962Z,6.71
2023-11-30T09:56:20.955Z,7.07
2023-11-30T09:58:43.482Z,7.28
2023-11-30T10:01:08.794Z,7.58
2023-11-30T10:03:35.190Z,7.65
2023-11-30T10:05:57.099Z,7.63
2023-11-30T10:08:19.324Z,7.69
2023-11-30T10:10:41.273Z,7.73
2023-11-30T10:13:03.879Z,7.80
2023-11-30T10:15:26.699Z,7.84
2023-11-30T10:17:49.956Z,7.90
2023-11-30T10:20:12.758Z,7.98
2023-11-30T10:22:34.725Z,8.06
2023-11-30T10:24:56.670Z,8.24
2023-11-30T10:27:25.275Z,8.48
2023-11-30T10:29:50.447Z,8.54
2023-11-30T10:32:14.690Z,8.55
2023-11-30T10:34:50.884Z,8.47
2023-11-30T10:37:19.205Z,8.31
2023-11-30T10:39:44.319Z,8.18
2023-11-30T10:42:13.933Z,8.09
2023-11-30T10:44:39.145Z,8.01
2023-11-30T10:47:02.111Z,7.90
2023-11-30T10:49:26.341Z,7.78
2023-11-30T10:51:53.355Z,7.70
2023-11-30T10:54:58.843Z,7.60
2023-11-30T10:57:22.202Z,7.56
2023-11-30T10:59:49.064Z,7.44
2023-11-30T11:02:13.718Z,7.42
2023-11-30T11:04:42.069Z,7.35
2023-11-30T11:07:13.434Z,7.35
2023-11-30T11:09:43.225Z,7.25
2023-11-30T11:12:05.363Z,7.22
2023-11-30T11:14:33.810Z,7.19
2023-11-30T11:17:08.184Z,7.31
2023-11-30T11:19:33.536Z,7.39
2023-11-30T11:21:55.612Z,7.49
2023-11-30T11:24:23.764Z,7.56
2023-11-30T11:26:56.708Z,7.61
2023-11-30T11:29:24.351Z,7.61
2023-11-30T11:31:52.743Z,7.58
2023-11-30T11:34:15.312Z,7.60
2023-11-30T11:36:38.502Z,7.47
2023-11-30T11:39:00.394Z,7.45
2023-11-30T11:41:22.370Z,7.36
2023-11-30T11:43:44.205Z,7.19
2023-11-30T11:46:06.605Z,7.17
2023-11-30T11:48:28.513Z,7.09
2023-11-30T11:51:00.429Z,7.05
2023-11-30T11:53:23.350Z,6.99
2023-11-30T11:55:45.296Z,7.00
2023-11-30T11:58:07.345Z,6.92
2023-11-30T12:00:29.337Z,6.92
2023-11-30T12:02:52.494Z,6.91
2023-11-30T12:05:26.531Z,6.91
2023-11-30T12:07:57.737Z,6.92
2023-11-30T12:10:40.201Z,6.88
2023-11-30T12:13:03.939Z,6.87
2023-11-30T12:15:26.020Z,6.93
2023-11-30T12:17:47.956Z,6.97
2023-11-30T12:20:10.316Z,6.95
2023-11-30T12:22:32.196Z,6.96
2023-11-30T12:24:54.511Z,6.91
2023-11-30T12:27:16.447Z,6.96
2023-11-30T12:29:38.499Z,6.90
2023-11-30T12:32:00.524Z,6.97
2023-11-30T12:34:22.569Z,6.90
2023-11-30T12:36:44.537Z,6.95
2023-11-30T12:39:07.096Z,6.95
2023-11-30T12:41:28.954Z,6.97
2023-11-30T12:43:50.831Z,6.89
2023-11-30T12:46:12.861Z,6.86
2023-11-30T12:48:34.964Z,6.84
2023-11-30T12:50:56.917Z,6.77
2023-11-30T12:53:19.067Z,6.72
2023-11-30T12:55:41.241Z,6.69
2023-11-30T12:58:03.119Z,6.73
2023-11-30T13:00:24.991Z,6.67
2023-11-30T13:02:48.976Z,6.72
2023-11-30T13:05:12.905Z,6.70
2023-11-30T13:07:34.799Z,6.76
2023-11-30T13:09:57.008Z,6.76
2023-11-30T13:12:18.941Z,6.74
2023-11-30T13:14:40.835Z,6.74
2023-11-30T13:17:02.718Z,6.78
2023-11-30T13:19:25.425Z,6.78
2023-11-30T13:21:47.735Z,6.76
2023-11-30T13:24:09.707Z,6.71
2023-11-30T13:26:33.588Z,6.67
2023-11-30T13:28:55.470Z,6.66
2023-11-30T13:31:17.669Z,6.66
2023-11-30T13:33:39.619Z,6.66
2023-11-30T13:36:01.699Z,6.69
2023-11-30T13:38:23.674Z,6.69
2023-11-30T13:40:46.669Z,6.67
2023-11-30T13:43:08.676Z,6.63
2023-11-30T13:45:31.323Z,6.65
2023-11-30T13:47:53.204Z,6.61
2023-11-30T13:50:26.207Z,6.61
2023-11-30T13:52:53.035Z,6.55
2023-11-30T13:55:15.582Z,6.54
2023-11-30T13:57:37.441Z,6.46
2023-11-30T13:59:59.337Z,6.41
2023-11-30T14:02:21.247Z,6.38
2023-11-30T14:04:43.141Z,6.38
2023-11-30T14:07:05.184Z,6.36
2023-11-30T14:09:27.792Z,6.34
2023-11-30T14:11:49.769Z,6.32
2023-11-30T14:14:12.240Z,6.37
2023-11-30T14:16:34.294Z,6.37
2023-11-30T14:18:56.211Z,6.39
2023-11-30T14:21:19.475Z,6.36
2023-11-30T14:23:41.366Z,6.40
2023-11-30T14:26:03.293Z,6.38
2023-11-30T14:28:27.234Z,6.37
2023-11-30T14:30:49.383Z,6.32
2023-11-30T14:33:14.159Z,6.24
2023-11-30T14:35:36.314Z,6.19
2023-11-30T14:37:58.282Z,6.17
2023-11-30T14:40:21.115Z,6.12
2023-11-30T14:42:43.256Z,6.12
2023-11-30T14:45:07.343Z,6.09
2023-11-30T14:47:34.467Z,6.03
2023-11-30T14:49:56.376Z,5.98
2023-11-30T14:52:18.252Z,5.95
2023-11-30T14:54:40.517Z,5.94
2023-11-30T14:57:04.722Z,5.94
2023-11-30T14:59:28.086Z,5.92
2023-11-30T15:01:50.144Z,5.94
2023-11-30T15:04:12.249Z,5.91
2023-11-30T15:06:34.251Z,5.90
2023-11-30T15:08:56.174Z,5.90
2023-11-30T15:11:18.169Z,5.84
2023-11-30T15:13:40.039Z,5.84
2023-11-30T15:16:02.053Z,5.75
2023-11-30T15:18:24.634Z,5.75
2023-11-30T15:20:46.853Z,5.70
2023-11-30T15:23:08.762Z,5.66
2023-11-30T15:25:30.664Z,5.56
2023-11-30T15:27:52.775Z,5.43
2023-11-30T15:30:16.388Z,5.38
2023-11-30T15:32:39.254Z,5.33
2023-11-30T15:35:01.239Z,5.27
2023-11-30T15:37:23.238Z,5.26
2023-11-30T15:39:45.134Z,5.24
2023-11-30T15:42:07.056Z,5.25
2023-11-30T15:44:28.903Z,5.24
2023-11-30T15:46:50.764Z,5.24
2023-11-30T15:49:13.306Z,5.24
2023-11-30T15:51:40.797Z,5.19
2023-11-30T15:54:02.669Z,5.16
2023-11-30T15:56:24.720Z,5.14
2023-11-30T15:58:47.883Z,5.09
2023-11-30T16:01:11.899Z,4.98
2023-11-30T16:03:33.846Z,5.03
2023-11-30T16:05:55.766Z,5.09
2023-11-30T16:08:18.369Z,5.10
2023-11-30T16:10:40.238Z,5.11
2023-11-30T16:13:02.705Z,5.13
2023-11-30T16:15:25.799Z,5.20
2023-11-30T16:17:50.246Z,5.23
2023-11-30T16:20:12.974Z,5.26
2023-11-30T16:22:34.998Z,5.30
2023-11-30T16:24:57.102Z,5.26
2023-11-30T16:27:21.235Z,5.13
2023-11-30T16:29:43.227Z,5.07
2023-11-30T16:32:05.729Z,5.02
2023-11-30T16:34:32.001Z,4.98
2023-11-30T16:36:53.909Z,4.96
2023-11-30T16:39:16.432Z,4.94
2023-11-30T16:41:38.274Z,4.90
2023-11-30T16:44:00.312Z,4.82
2023-11-30T16:46:22.358Z,4.80
2023-11-30T16:48:45.454Z,4.85
2023-11-30T16:51:07.927Z,4.90
2023-11-30T16:53:29.845Z,4.84
2023-11-30T16:55:52.247Z,4.87
2023-11-30T16:58:14.121Z,4.93
2023-11-30T17:00:36.122Z,4.94
2023-11-30T17:02:58.413Z,4.88
2023-11-30T17:05:21.698Z,4.93
2023-11-30T17:07:46.562Z,4.95
2023-11-30T17:10:09.611Z,4.92
2023-11-30T17:12:31.536Z,4.92
2023-11-30T17:14:53.400Z,4.91
2023-11-30T17:17:15.373Z,4.92
2023-11-30T17:19:37.314Z,4.79
2023-11-30T17:21:59.413Z,4.67
2023-11-30T17:24:22.090Z,4.66
2023-11-30T17:26:44.746Z,4.73
2023-11-30T17:29:06.616Z,4.75
2023-11-30T17:31:29.002Z,4.76
2023-11-30T17:33:52.633Z,4.80
2023-11-30T17:36:15.080Z,4.85
2023-11-30T17:38:37.556Z,4.88
2023-11-30T17:40:59.576Z,4.90
2023-11-30T17:43:21.460Z,4.94
2023-11-30T17:45:43.457Z,4.97
2023-11-30T17:48:06.386Z,4.99
2023-11-30T17:50:28.438Z,5.02
2023-11-30T17:52:50.970Z,5.03
2023-11-30T17:55:13.823Z,5.00
2023-11-30T17:57:35.733Z,4.92
2023-11-30T17:59:57.791Z,4.82
2023-11-30T18:02:20.325Z,4.75
2023-11-30T18:04:42.383Z,4.75
2023-11-30T18:07:08.520Z,4.78
2023-11-30T18:09:30.453Z,4.76
2023-11-30T18:11:52.369Z,4.72
2023-11-30T18:14:16.092Z,4.72
2023-11-30T18:16:38.246Z,4.72
2023-11-30T18:19:00.320Z,4.72
2023-11-30T18:21:22.258Z,4.59
2023-11-30T18:23:44.172Z,4.50
2023-11-30T18:26:06.211Z,4.47
2023-11-30T18:28:28.065Z,4.44
2023-11-30T18:30:50.899Z,4.44
2023-11-30T18:33:12.878Z,4.43
2023-11-30T18:35:35.387Z,4.37
2023-11-30T18:38:01.304Z,4.39
2023-11-30T18:40:25.294Z,4.37
2023-11-30T18:42:47.829Z,4.38
2023-11-30T18:45:10.735Z,4.39
2023-11-30T18:47:32.656Z,4.39
2023-11-30T18:49:54.831Z,4.39
2023-11-30T18:52:17.830Z,4.33
2023-11-30T18:54:39.997Z,4.32
2023-11-30T18:57:01.987Z,4.26
2023-11-30T18:59:23.907Z,4.22
2023-11-30T19:01:45.911Z,4.21
2023-11-30T19:04:07.894Z,4.19
2023-11-30T19:06:29.855Z,4.19
2023-11-30T19:11:22.519Z,4.22
2023-11-30T19:13:44.639Z,4.20
2023-11-30T19:16:07.726Z,4.22
2023-11-30T19:18:30.643Z,4.25
2023-11-30T19:20:52.618Z,4.24
2023-11-30T19:23:15.272Z,4.26
2023-11-30T19:25:41.973Z,4.26
2023-11-30T19:28:04.160Z,4.24
2023-11-30T19:30:26.220Z,4.23
2023-11-30T19:32:48.213Z,4.23
2023-11-30T19:35:10.287Z,4.21
2023-11-30T19:37:32.199Z,4.21
2023-11-30T19:39:54.142Z,4.18
2023-11-30T19:42:16.073Z,4.15
2023-11-30T19:44:37.988Z,4.15
2023-11-30T19:46:59.939Z,4.13
2023-11-30T19:49:21.794Z,4.13
2023-11-30T19:51:43.715Z,4.11
2023-11-30T19:54:06.034Z,4.07
2023-11-30T19:56:29.696Z,3.98
2023-11-30T19:58:51.659Z,3.95
2023-11-30T20:01:13.933Z,3.89
2023-11-30T20:03:36.035Z,3.93
2023-11-30T20:05:58.039Z,3.93
2023-11-30T20:08:20.010Z,3.98
2023-11-30T20:10:41.884Z,3.98
2023-11-30T20:13:04.096Z,3.97
2023-11-30T20:15:26.042Z,3.93
2023-11-30T20:17:49.379Z,3.91
2023-11-30T20:20:11.670Z,3.90
2023-11-30T20:22:33.680Z,3.89
2023-11-30T20:24:55.899Z,3.81
2023-11-30T20:27:17.828Z,3.78
2023-11-30T20:29:39.707Z,3.69
2023-11-30T20:32:02.018Z,3.62
2023-11-30T20:34:23.901Z,3.55
2023-11-30T20:36:45.818Z,3.54
2023-11-30T20:39:07.716Z,3.48
2023-11-30T20:41:29.599Z,3.46
2023-11-30T20:43:51.930Z,3.46
2023-11-30T20:46:14.369Z,3.40
2023-11-30T20:48:36.527Z,3.38
2023-11-30T20:50:58.400Z,3.32
2023-11-30T20:53:20.341Z,3.34
2023-11-30T20:55:44.617Z,3.31
2023-11-30T20:58:06.608Z,3.32
2023-11-30T21:00:28.604Z,3.28
2023-11-30T21:02:50.633Z,3.20
2023-11-30T21:05:12.705Z,3.13
2023-11-30T21:07:34.578Z,3.19
2023-11-30T21:09:57.279Z,3.33
2023-11-30T21:12:19.160Z,3.34
2023-11-30T21:14:40.999Z,3.35
2023-11-30T21:17:02.976Z,3.34
2023-11-30T21:19:25.895Z,3.35
2023-11-30T21:21:48.476Z,3.33
2023-11-30T21:24:10.590Z,3.33
2023-11-30T21:26:32.592Z,3.35
2023-11-30T21:28:54.501Z,3.34
2023-11-30T21:31:16.544Z,3.33
2023-11-30T21:33:38.959Z,3.26
2023-11-30T21:36:00.856Z,3.25
2023-11-30T21:38:23.106Z,3.25
2023-11-30T21:40:44.948Z,3.24
2023-11-30T21:43:06.832Z,3.23
2023-11-30T21:45:28.847Z,3.17
2023-11-30T21:47:50.765Z,3.19
2023-11-30T21:50:18.986Z,3.18
2023-11-30T21:52:41.141Z,3.18
2023-11-30T21:55:03.078Z,3.20
2023-11-30T21:57:25.039Z,3.22
2023-11-30T21:59:46.945Z,3.25
2023-11-30T22:02:09.045Z,3.23
2023-11-30T22:04:31.878Z,3.26
2023-11-30T22:06:54.179Z,3.19
2023-11-30T22:09:16.055Z,3.17
2023-11-30T22:11:37.945Z,3.14
2023-11-30T22:13:59.837Z,3.16
2023-11-30T22:16:26.537Z,3.13
2023-11-30T22:18:54.999Z,3.17
2023-11-30T22:21:16.904Z,3.17
2023-11-30T22:23:38.866Z,3.17
2023-11-30T22:26:04.276Z,3.19
2023-11-30T22:28:26.681Z,3.20
2023-11-30T22:30:48.609Z,3.19
2023-11-30T22:33:10.528Z,3.19
2023-11-30T22:35:32.374Z,3.21
2023-11-30T22:37:54.451Z,3.22
2023-11-30T22:40:16.558Z,3.17
2023-11-30T22:42:38.655Z,3.14
2023-11-30T22:45:01.993Z,3.10
2023-11-30T22:47:24.050Z,3.10
2023-11-30T22:49:46.355Z,3.11
2023-11-30T22:52:08.351Z,3.13
2023-11-30T22:54:30.452Z,3.12
2023-11-30T22:56:52.492Z,3.07
2023-11-30T22:59:16.384Z,3.09
2023-11-30T23:01:38.639Z,3.10
2023-11-30T23:04:02.326Z,3.11
2023-11-30T23:06:24.421Z,3.11
2023-11-30T23:08:47.245Z,3.12
2023-11-30T23:11:10.510Z,3.15
2023-11-30T23:13:32.352Z,3.17
2023-11-30T23:15:54.426Z,3.19
2023-11-30T23:18:17.624Z,3.23
2023-11-30T23:20:39.641Z,3.24
2023-11-30T23:23:01.527Z,3.25
2023-11-30T23:25:23.904Z,3.21
2023-11-30T23:27:45.804Z,3.22
2023-11-30T23:30:08.408Z,3.20
2023-11-30T23:32:30.323Z,3.19
2023-11-30T23:34:52.294Z,3.21
2023-11-30T23:37:14.172Z,3.22
2023-11-30T23:39:36.053Z,3.21
2023-11-30T23:41:57.998Z,3.13
2023-11-30T23:44:19.886Z,3.14
2023-11-30T23:46:41.783Z,3.17
2023-11-30T23:49:03.728Z,3.17
2023-11-30T23:51:25.723Z,3.20
2023-11-30T23:53:47.687Z,3.22
2023-11-30T23:56:10.224Z,3.27
2023-11-30T23:58:32.084Z,3.31
